createdAt,value
2022-08-22T00:01:10.788Z,88.60
2022-08-22T00:02:52.802Z,83.43
2022-08-22T00:02:58.276Z,83.22
2022-08-22T00:03:12.733Z,89.16
2022-08-22T00:03:59.752Z,88.32
2022-08-22T00:06:41.668Z,87.85
2022-08-22T00:09:33.853Z,87.91
2022-08-22T00:12:04.769Z,88.64
2022-08-22T00:14:46.045Z,88.77
2022-08-22T00:17:49.358Z,88.74
2022-08-22T00:20:28.109Z,88.48
2022-08-22T00:23:18.605Z,88.48
2022-08-22T00:25:52.439Z,88.83
2022-08-22T00:28:44.458Z,88.72
2022-08-22T00:31:34.053Z,88.60
2022-08-22T00:34:17.419Z,88.66
2022-08-22T00:36:56.758Z,88.62
2022-08-22T00:39:36.723Z,88.78
2022-08-22T00:42:15.190Z,89.21
2022-08-22T00:45:22.383Z,90.02
2022-08-22T00:48:15.118Z,89.96
2022-08-22T00:50:49.331Z,89.78
2022-08-22T00:53:38.094Z,89.48
2022-08-22T00:56:36.303Z,89.46
2022-08-22T00:59:31.626Z,89.52
2022-08-22T01:02:30.448Z,90.35
2022-08-22T01:05:07.652Z,89.67
2022-08-22T01:07:38.624Z,89.76
2022-08-22T01:10:24.883Z,89.70
2022-08-22T01:13:10.780Z,89.68
2022-08-22T01:15:40.751Z,90.67
2022-08-22T01:18:39.946Z,90.69
2022-08-22T01:21:29.101Z,90.32
2022-08-22T01:24:24.826Z,90.60
2022-08-22T01:27:07.903Z,90.78
2022-08-22T01:29:47.312Z,90.79
2022-08-22T01:32:34.334Z,90.78
2022-08-22T01:35:34.555Z,91.09
2022-08-22T01:38:44.095Z,91.32
2022-08-22T01:41:38.527Z,91.76
2022-08-22T01:44:24.906Z,91.78
2022-08-22T01:47:24.808Z,91.71
2022-08-22T01:50:21.553Z,91.86
2022-08-22T01:52:59.393Z,92.03
2022-08-22T01:55:35.204Z,92.59
2022-08-22T01:58:15.833Z,92.34
2022-08-22T02:01:28.873Z,92.28
2022-08-22T02:04:21.645Z,92.58
2022-08-22T02:07:07.227Z,92.75
2022-08-22T02:09:53.717Z,92.63
2022-08-22T02:12:53.683Z,92.75
2022-08-22T02:15:31.141Z,93.32
2022-08-22T02:18:04.943Z,92.88
2022-08-22T02:20:39.549Z,92.61
2022-08-22T02:23:44.445Z,92.99
2022-08-22T02:26:28.351Z,93.20
2022-08-22T02:28:59.391Z,92.90
2022-08-22T02:31:46.419Z,92.98
2022-08-22T02:34:36.918Z,93.28
2022-08-22T02:37:21.891Z,93.26
2022-08-22T02:40:34.050Z,93.36
2022-08-22T02:43:07.905Z,93.32
2022-08-22T02:45:39.229Z,93.22
2022-08-22T02:48:29.971Z,93.14
2022-08-22T02:51:13.458Z,93.29
2022-08-22T02:53:47.523Z,93.80
2022-08-22T02:56:35.836Z,93.43
2022-08-22T02:59:27.349Z,93.09
2022-08-22T03:01:56.944Z,92.90
2022-08-22T03:04:47.653Z,93.05
2022-08-22T03:07:15.350Z,92.86
2022-08-22T03:10:16.761Z,93.35
2022-08-22T03:13:11.579Z,92.86
2022-08-22T03:16:09.452Z,92.90
2022-08-22T03:19:18.318Z,92.90
2022-08-22T03:21:52.986Z,92.84
2022-08-22T03:24:31.500Z,93.09
2022-08-22T03:27:02.085Z,93.29
2022-08-22T03:29:53.360Z,93.25
2022-08-22T03:32:24.582Z,93.30
2022-08-22T03:35:00.745Z,93.57
2022-08-22T03:37:43.792Z,93.72
2022-08-22T03:40:44.299Z,93.58
2022-08-22T03:43:40.323Z,93.62
2022-08-22T03:46:30.310Z,93.65
2022-08-22T03:49:32.402Z,93.67
2022-08-22T03:52:18.776Z,93.85
2022-08-22T03:54:55.531Z,93.76
2022-08-22T03:57:58.245Z,94.33
2022-08-22T04:00:32.203Z,93.87
2022-08-22T04:03:12.090Z,93.63
2022-08-22T04:05:55.027Z,93.38
2022-08-22T04:09:01.992Z,93.38
2022-08-22T04:12:20.957Z,93.71
2022-08-22T04:15:27.054Z,93.81
2022-08-22T04:18:16.126Z,93.70
2022-08-22T04:21:19.715Z,93.86
2022-08-22T04:23:59.428Z,93.77
2022-08-22T04:26:33.386Z,94.09
2022-08-22T04:29:28.649Z,94.06
2022-08-22T04:32:07.997Z,94.21
2022-08-22T04:34:45.676Z,94.27
2022-08-22T04:37:30.752Z,93.84
2022-08-22T04:40:46.785Z,93.47
2022-08-22T04:43:48.083Z,93.22
2022-08-22T04:46:22.403Z,93.28
2022-08-22T04:48:57.078Z,93.30
2022-08-22T04:51:54.214Z,92.94
2022-08-22T04:54:43.503Z,92.75
2022-08-22T04:57:23.432Z,92.73
2022-08-22T04:59:52.720Z,92.56
2022-08-22T05:02:24.848Z,92.48
2022-08-22T05:05:04.385Z,92.67
2022-08-22T05:07:39.880Z,92.28
2022-08-22T05:10:16.861Z,92.16
2022-08-22T05:12:53.032Z,92.25
2022-08-22T05:15:27.829Z,92.39
2022-08-22T05:18:00.571Z,92.51
2022-08-22T05:20:30.247Z,92.55
2022-08-22T05:23:06.125Z,92.65
2022-08-22T05:25:49.049Z,92.55
2022-08-22T05:28:39.079Z,92.39
2022-08-22T05:31:14.991Z,92.32
2022-08-22T05:33:50.126Z,92.41
2022-08-22T05:36:25.322Z,92.47
2022-08-22T05:39:00.652Z,92.54
2022-08-22T05:41:36.110Z,92.58
2022-08-22T05:44:07.540Z,92.68
2022-08-22T05:46:44.536Z,92.55
2022-08-22T05:49:29.590Z,91.90
2022-08-22T05:52:16.417Z,91.45
2022-08-22T05:54:53.964Z,91.46
2022-08-22T05:57:33.664Z,90.89
2022-08-22T06:00:11.130Z,91.27
2022-08-22T06:02:42.684Z,91.53
2022-08-22T06:05:12.409Z,91.37
2022-08-22T06:07:50.482Z,91.17
2022-08-22T06:10:18.687Z,91.15
2022-08-22T06:13:21.985Z,91.21
2022-08-22T06:16:00.228Z,90.82
2022-08-22T06:18:31.139Z,90.37
2022-08-22T06:21:03.385Z,90.08
2022-08-22T06:23:58.792Z,89.70
2022-08-22T06:26:34.759Z,88.80
2022-08-22T06:29:06.855Z,88.64
2022-08-22T06:31:55.477Z,88.07
2022-08-22T06:34:36.027Z,87.92
2022-08-22T06:37:05.858Z,87.27
2022-08-22T06:39:40.623Z,86.63
2022-08-22T06:42:16.498Z,86.45
2022-08-22T06:44:50.436Z,86.63
2022-08-22T06:47:37.252Z,86.33
2022-08-22T06:50:17.981Z,86.50
2022-08-22T06:53:00.564Z,86.69
2022-08-22T06:55:30.712Z,86.62
2022-08-22T06:58:26.778Z,86.56
2022-08-22T07:01:12.359Z,86.14
2022-08-22T07:03:46.687Z,86.15
2022-08-22T07:06:23.022Z,86.22
2022-08-22T07:08:55.125Z,86.07
2022-08-22T07:11:28.963Z,85.84
2022-08-22T07:14:09.651Z,85.43
2022-08-22T07:16:48.323Z,84.73
2022-08-22T07:19:30.001Z,84.63
2022-08-22T07:22:09.847Z,84.41
2022-08-22T07:24:44.696Z,83.52
2022-08-22T07:27:15.930Z,83.03
2022-08-22T07:29:56.126Z,82.04
2022-08-22T07:32:42.188Z,82.07
2022-08-22T07:35:30.424Z,82.57
2022-08-22T07:38:27.357Z,82.77
2022-08-22T07:41:07.061Z,82.48
2022-08-22T07:43:40.795Z,82.31
2022-08-22T07:46:20.824Z,82.24
2022-08-22T07:49:23.837Z,82.30
2022-08-22T07:51:59.358Z,82.49
2022-08-22T07:54:36.889Z,81.96
2022-08-22T07:57:23.417Z,81.40
2022-08-22T07:59:56.692Z,80.79
2022-08-22T08:02:26.564Z,81.10
2022-08-22T08:05:00.318Z,80.26
2022-08-22T08:07:30.335Z,79.22
2022-08-22T08:10:04.756Z,78.77
2022-08-22T08:12:42.412Z,78.97
2022-08-22T08:15:20.180Z,78.74
2022-08-22T08:18:00.718Z,78.22
2022-08-22T08:20:30.389Z,77.96
2022-08-22T08:22:59.473Z,77.38
2022-08-22T08:25:32.342Z,77.03
2022-08-22T08:28:19.459Z,76.97
2022-08-22T08:30:55.530Z,76.32
2022-08-22T08:33:28.255Z,76.22
2022-08-22T08:36:04.145Z,76.21
2022-08-22T08:38:45.119Z,76.93
2022-08-22T08:41:26.638Z,75.94
2022-08-22T08:44:03.775Z,75.08
2022-08-22T08:46:59.628Z,74.15
2022-08-22T08:49:43.124Z,73.86
2022-08-22T08:52:33.072Z,73.26
2022-08-22T08:55:00.871Z,73.02
2022-08-22T08:57:41.828Z,73.12
2022-08-22T09:00:44.480Z,73.20
2022-08-22T09:03:27.343Z,72.96
2022-08-22T09:06:07.669Z,73.12
2022-08-22T09:08:56.478Z,73.32
2022-08-22T09:11:40.484Z,73.62
2022-08-22T09:14:12.497Z,73.47
2022-08-22T09:17:00.589Z,72.92
2022-08-22T09:23:12.910Z,72.17
2022-08-22T09:25:50.177Z,72.00
2022-08-22T09:28:37.287Z,71.83
2022-08-22T09:31:47.439Z,71.02
2022-08-22T09:34:47.697Z,69.07
2022-08-22T09:37:40.972Z,68.34
2022-08-22T09:43:22.793Z,68.27
2022-08-22T09:46:14.737Z,67.88
2022-08-22T09:49:00.945Z,68.38
2022-08-22T09:51:46.983Z,67.10
2022-08-22T09:54:31.596Z,66.35
2022-08-22T09:57:34.027Z,65.64
2022-08-22T10:00:09.779Z,65.56
2022-08-22T10:02:50.370Z,65.28
2022-08-22T10:05:40.614Z,64.74
2022-08-22T10:08:38.507Z,65.13
2022-08-22T10:11:23.784Z,64.53
2022-08-22T10:13:57.527Z,64.35
2022-08-22T10:16:33.319Z,64.78
2022-08-22T10:19:43.038Z,63.72
2022-08-22T10:22:23.435Z,64.06
2022-08-22T10:24:51.287Z,63.08
2022-08-22T10:27:39.749Z,63.63
2022-08-22T10:30:21.751Z,62.93
2022-08-22T10:33:05.327Z,63.38
2022-08-22T10:35:58.140Z,63.02
2022-08-22T10:38:32.472Z,62.55
2022-08-22T10:41:18.571Z,62.53
2022-08-22T10:43:56.415Z,62.47
2022-08-22T10:46:53.264Z,62.97
2022-08-22T10:49:51.119Z,63.40
2022-08-22T10:52:30.341Z,64.21
2022-08-22T10:55:12.586Z,64.21
2022-08-22T10:58:00.652Z,63.97
2022-08-22T11:00:58.446Z,64.34
2022-08-22T11:03:53.906Z,64.26
2022-08-22T11:06:26.320Z,63.82
2022-08-22T11:09:06.423Z,63.71
2022-08-22T11:12:12.721Z,64.03
2022-08-22T11:15:28.458Z,64.94
2022-08-22T11:18:20.654Z,65.44
2022-08-22T11:21:14.311Z,65.78
2022-08-22T11:24:08.672Z,65.99
2022-08-22T11:27:12.955Z,66.78
2022-08-22T11:29:41.161Z,67.15
2022-08-22T11:32:14.460Z,67.08
2022-08-22T11:35:11.954Z,67.21
2022-08-22T11:37:43.350Z,66.97
2022-08-22T11:40:23.581Z,66.70
2022-08-22T11:42:59.101Z,66.32
2022-08-22T11:45:45.799Z,66.81
2022-08-22T11:48:35.046Z,68.14
2022-08-22T11:51:24.658Z,67.90
2022-08-22T11:54:11.970Z,67.20
2022-08-22T11:56:51.589Z,66.48
2022-08-22T11:59:43.201Z,66.73
2022-08-22T12:02:56.417Z,65.76
2022-08-22T12:05:32.417Z,66.12
2022-08-22T12:08:14.079Z,66.37
2022-08-22T12:10:56.084Z,70.55
2022-08-22T12:13:50.360Z,73.17
2022-08-22T12:16:21.816Z,78.43
2022-08-22T12:19:13.291Z,80.51
2022-08-22T12:21:44.230Z,85.83
2022-08-22T12:24:36.255Z,86.50
2022-08-22T12:27:33.565Z,89.24
2022-08-22T12:30:26.212Z,90.29
2022-08-22T12:32:57.339Z,90.40
2022-08-22T12:35:43.522Z,91.21
2022-08-22T12:38:27.914Z,90.27
2022-08-22T12:41:09.682Z,89.05
2022-08-22T12:44:17.046Z,88.46
2022-08-22T12:47:14.253Z,87.84
2022-08-22T12:50:00.602Z,87.00
2022-08-22T12:53:04.886Z,87.94
2022-08-22T12:55:57.271Z,88.15
2022-08-22T12:58:59.065Z,88.29
2022-08-22T13:01:34.620Z,88.05
2022-08-22T13:04:12.639Z,87.43
2022-08-22T13:07:02.082Z,85.88
2022-08-22T13:09:43.401Z,85.95
2022-08-22T13:12:25.177Z,86.43
2022-08-22T13:15:01.667Z,85.55
2022-08-22T13:17:31.152Z,86.48
2022-08-22T13:20:11.630Z,87.31
2022-08-22T13:22:45.623Z,87.31
2022-08-22T13:25:29.556Z,87.23
2022-08-22T13:28:04.159Z,86.71
2022-08-22T13:30:41.275Z,85.96
2022-08-22T13:33:26.325Z,86.09
2022-08-22T13:36:06.316Z,87.01
2022-08-22T13:38:46.304Z,86.94
2022-08-22T13:41:30.092Z,87.25
2022-08-22T13:44:16.406Z,87.83
2022-08-22T13:47:13.112Z,87.39
2022-08-22T13:49:41.160Z,87.29
2022-08-22T13:52:32.903Z,86.47
2022-08-22T13:55:16.699Z,84.91
2022-08-22T13:58:24.987Z,83.05
2022-08-22T14:00:57.356Z,82.01
2022-08-22T14:03:35.383Z,80.91
2022-08-22T14:06:37.494Z,79.31
2022-08-22T14:09:32.619Z,77.92
2022-08-22T14:12:16.457Z,77.35
2022-08-22T14:14:49.211Z,76.73
2022-08-22T14:17:25.363Z,75.82
2022-08-22T14:20:02.920Z,76.19
2022-08-22T14:22:37.654Z,76.88
2022-08-22T14:25:19.399Z,76.53
2022-08-22T14:28:01.068Z,76.59
2022-08-22T14:30:54.292Z,76.19
2022-08-22T14:33:32.256Z,75.25
2022-08-22T14:36:11.912Z,75.65
2022-08-22T14:38:49.794Z,75.96
2022-08-22T14:41:19.796Z,75.13
2022-08-22T14:43:59.567Z,74.62
2022-08-22T14:46:37.560Z,74.70
2022-08-22T14:49:19.340Z,74.33
2022-08-22T14:51:51.222Z,73.88
2022-08-22T14:54:22.018Z,73.78
2022-08-22T14:56:53.159Z,74.16
2022-08-22T14:59:44.164Z,74.22
2022-08-22T15:02:32.777Z,74.96
2022-08-22T15:05:13.327Z,72.39
2022-08-22T15:07:42.030Z,69.29
2022-08-22T15:10:46.045Z,69.41
2022-08-22T15:13:21.174Z,68.02
2022-08-22T15:15:55.825Z,66.88
2022-08-22T15:18:28.004Z,67.23
2022-08-22T15:21:08.667Z,67.55
2022-08-22T15:23:44.787Z,67.97
2022-08-22T15:26:23.130Z,66.85
2022-08-22T15:29:02.108Z,66.62
2022-08-22T15:31:33.892Z,67.90
2022-08-22T15:34:44.433Z,67.52
2022-08-22T15:37:18.314Z,65.71
2022-08-22T15:40:11.522Z,65.87
2022-08-22T15:42:47.626Z,65.73
2022-08-22T15:45:33.772Z,65.78
2022-08-22T15:48:09.306Z,65.35
2022-08-22T15:50:42.125Z,64.61
2022-08-22T15:53:17.543Z,63.53
2022-08-22T15:56:15.419Z,63.62
2022-08-22T15:58:49.037Z,63.48
2022-08-22T16:01:24.265Z,64.20
2022-08-22T16:04:03.517Z,64.94
2022-08-22T16:06:54.929Z,65.58
2022-08-22T16:09:29.211Z,64.47
2022-08-22T16:12:01.934Z,64.02
2022-08-22T16:14:32.942Z,63.80
2022-08-22T16:17:07.148Z,63.58
2022-08-22T16:19:36.086Z,63.87
2022-08-22T16:22:08.365Z,63.94
2022-08-22T16:24:56.975Z,63.79
2022-08-22T16:27:27.084Z,65.13
2022-08-22T16:30:12.610Z,64.59
2022-08-22T16:32:53.286Z,64.22
2022-08-22T16:36:03.278Z,65.00
2022-08-22T16:38:41.038Z,64.88
2022-08-22T16:41:35.584Z,65.43
2022-08-22T16:44:40.679Z,65.61
2022-08-22T16:47:32.722Z,65.24
2022-08-22T16:50:25.584Z,65.29
2022-08-22T16:53:02.349Z,65.26
2022-08-22T16:55:30.194Z,65.27
2022-08-22T16:58:21.442Z,65.11
2022-08-22T17:01:14.559Z,65.46
2022-08-22T17:04:19.848Z,65.96
2022-08-22T17:07:18.570Z,66.53
2022-08-22T17:10:08.955Z,66.33
2022-08-22T17:12:51.735Z,66.55
2022-08-22T17:15:28.418Z,66.60
2022-08-22T17:18:18.279Z,67.12
2022-08-22T17:20:58.307Z,67.34
2022-08-22T17:23:56.476Z,67.46
2022-08-22T17:26:37.862Z,67.61
2022-08-22T17:29:42.738Z,67.73
2022-08-22T17:32:37.487Z,68.26
2022-08-22T17:35:16.667Z,68.67
2022-08-22T17:37:47.607Z,69.47
2022-08-22T17:40:51.310Z,70.26
2022-08-22T17:43:57.718Z,72.47
2022-08-22T17:46:44.323Z,73.88
2022-08-22T17:49:12.084Z,75.36
2022-08-22T17:52:01.829Z,75.96
2022-08-22T17:54:40.761Z,77.38
2022-08-22T17:57:13.128Z,78.54
2022-08-22T18:00:03.140Z,79.34
2022-08-22T18:02:40.708Z,80.20
2022-08-22T18:05:19.265Z,80.78
2022-08-22T18:08:08.889Z,81.26
2022-08-22T18:10:54.059Z,81.70
2022-08-22T18:13:36.506Z,82.02
2022-08-22T18:16:07.829Z,81.98
2022-08-22T18:18:46.527Z,82.18
2022-08-22T18:21:26.942Z,82.67
2022-08-22T18:23:59.792Z,82.40
2022-08-22T18:26:33.437Z,82.39
2022-08-22T18:29:18.617Z,82.38
2022-08-22T18:31:49.702Z,82.42
2022-08-22T18:34:40.737Z,82.06
2022-08-22T18:37:37.205Z,82.03
2022-08-22T18:40:25.402Z,82.64
2022-08-22T18:43:06.190Z,82.82
2022-08-22T18:45:45.861Z,83.69
2022-08-22T18:48:26.677Z,83.56
2022-08-22T18:51:23.855Z,83.24
2022-08-22T18:54:04.000Z,83.29
2022-08-22T18:56:50.431Z,83.42
2022-08-22T18:59:37.093Z,83.72
2022-08-22T19:02:26.685Z,83.55
2022-08-22T19:05:16.655Z,83.96
2022-08-22T19:08:21.585Z,84.78
2022-08-22T19:11:15.361Z,84.28
2022-08-22T19:14:14.032Z,83.80
2022-08-22T19:16:54.180Z,84.35
2022-08-22T19:20:08.559Z,84.73
2022-08-22T19:22:37.257Z,85.16
2022-08-22T19:25:18.256Z,85.23
2022-08-22T19:27:51.732Z,85.70
2022-08-22T19:30:34.823Z,86.71
2022-08-22T19:33:05.474Z,86.63
2022-08-22T19:35:44.766Z,85.87
2022-08-22T19:38:32.849Z,85.48
2022-08-22T19:41:01.766Z,85.73
2022-08-22T19:43:35.659Z,85.96
2022-08-22T19:46:07.652Z,86.50
2022-08-22T19:48:46.875Z,86.38
2022-08-22T19:51:26.794Z,86.82
2022-08-22T19:54:06.653Z,87.51
2022-08-22T19:56:51.114Z,87.09
2022-08-22T19:59:31.970Z,86.50
2022-08-22T20:02:18.174Z,86.23
2022-08-22T20:05:01.612Z,87.23
2022-08-22T20:07:39.308Z,86.24
2022-08-22T20:10:16.371Z,85.93
2022-08-22T20:12:59.676Z,85.44
2022-08-22T20:15:30.585Z,85.17
2022-08-22T20:21:00.119Z,85.04
2022-08-22T20:23:32.681Z,85.13
2022-08-22T20:26:01.324Z,85.40
2022-08-22T20:28:48.918Z,85.44
2022-08-22T20:31:24.523Z,85.40
2022-08-22T20:33:59.141Z,86.14
2022-08-22T20:36:28.620Z,85.97
2022-08-22T20:39:09.491Z,85.90
2022-08-22T20:41:41.073Z,85.82
2022-08-22T20:44:21.803Z,85.29
2022-08-22T20:47:02.502Z,85.26
2022-08-22T20:49:43.568Z,85.59
2022-08-22T20:52:32.736Z,85.25
2022-08-22T20:55:13.236Z,85.26
2022-08-22T20:57:52.251Z,85.19
2022-08-22T21:00:33.618Z,84.93
2022-08-22T21:03:16.010Z,84.74
2022-08-22T21:05:46.074Z,84.73
2022-08-22T21:08:19.615Z,85.06
2022-08-22T21:11:16.719Z,85.77
2022-08-22T21:13:44.716Z,85.30
2022-08-22T21:16:18.598Z,85.89
2022-08-22T21:18:52.104Z,86.32
2022-08-22T21:21:22.882Z,86.67
2022-08-22T21:23:56.374Z,86.51
2022-08-22T21:26:29.962Z,86.56
2022-08-22T21:29:03.875Z,86.52
2022-08-22T21:31:52.920Z,86.20
2022-08-22T21:34:25.278Z,85.91
2022-08-22T21:36:59.713Z,85.83
2022-08-22T21:39:35.651Z,85.91
2022-08-22T21:42:03.413Z,86.01
2022-08-22T21:44:31.435Z,86.36
2022-08-22T21:47:31.107Z,86.54
2022-08-22T21:50:20.893Z,86.59
2022-08-22T21:53:11.937Z,86.49
2022-08-22T21:55:44.582Z,86.64
2022-08-22T21:58:36.000Z,86.54
2022-08-22T22:01:32.058Z,86.87
2022-08-22T22:04:00.534Z,86.88
2022-08-22T22:06:28.629Z,87.08
2022-08-22T22:08:56.570Z,87.10
2022-08-22T22:11:24.710Z,87.43
2022-08-22T22:13:53.526Z,87.85
2022-08-22T22:16:27.235Z,88.09
2022-08-22T22:18:55.680Z,88.15
2022-08-22T22:21:24.097Z,88.92
2022-08-22T22:23:52.599Z,89.46
2022-08-22T22:26:21.673Z,89.12
2022-08-22T22:28:50.393Z,89.16
2022-08-22T22:31:18.625Z,88.49
2022-08-22T22:33:46.594Z,88.75
2022-08-22T22:36:24.225Z,88.61
2022-08-22T22:38:53.191Z,88.71
2022-08-22T22:41:25.953Z,88.83
2022-08-22T22:43:55.487Z,88.48
2022-08-22T22:46:24.293Z,88.83
2022-08-22T22:48:53.257Z,89.29
2022-08-22T22:51:21.735Z,89.58
2022-08-22T22:53:50.318Z,89.17
2022-08-22T22:56:21.656Z,88.43
2022-08-22T22:59:01.012Z,88.38
2022-08-22T23:02:04.099Z,88.57
2022-08-22T23:04:35.506Z,88.65
2022-08-22T23:07:04.378Z,88.89
2022-08-22T23:09:37.975Z,88.88
2022-08-22T23:12:08.106Z,88.97
2022-08-22T23:14:36.680Z,89.28
2022-08-22T23:17:05.571Z,89.50
2022-08-22T23:19:34.723Z,89.85
2022-08-22T23:22:03.069Z,89.64
2022-08-22T23:24:31.863Z,89.71
2022-08-22T23:27:00.069Z,89.31
2022-08-22T23:29:28.234Z,89.04
2022-08-22T23:32:01.850Z,88.97
2022-08-22T23:34:35.192Z,89.26
2022-08-22T23:37:06.475Z,89.28
2022-08-22T23:39:36.117Z,89.62
2022-08-22T23:42:06.855Z,89.08
2022-08-22T23:44:37.464Z,89.24
2022-08-22T23:47:06.235Z,89.44
2022-08-22T23:49:35.230Z,89.43
2022-08-22T23:52:04.826Z,90.12
2022-08-22T23:54:33.965Z,89.73
2022-08-22T23:57:12.254Z,90.16
2022-08-22T23:59:48.028Z,90.82
